^^
Saratoga-Weather Station Historical Data
Daily Summary for October 14, 2021 Units:  Metric    English   Both
Daily Weekly Monthly Yearly Custom
  High: Low: Average:
Temperature: 14.2 °C 5.2 °C 8.7 °C
Dew Point: 9.9 °C 4.6 °C 6.9 °C
Humidity: 97% 69% 89%
Wind Speed: 9.7km/h 0km/h 1km/h
Wind Gust: 12.9km/h - -
Wind- - West
Pressure: 1027.8 hPa 1021.7 hPa -
Precipitation: 0.0 mm    
Historical Graphs
 
 
Tabular Data for October 14, 2021
Time Temperature Dew Point Pressure Wind Wind Speed Wind Gust Humidity Rainfall Rate (Hourly) solar
00:03 6.9 °C 5.8 °C 1027.8 hPa Calm     93% 0.0 mm 0 W/m2
00:08 6.8 °C 5.7 °C 1027.8 hPa Calm     93% 0.0 mm 0 W/m2
00:13 6.7 °C 5.6 °C 1027.4 hPa Calm     93% 0.0 mm 0 W/m2
00:18 6.6 °C 5.5 °C 1027.8 hPa Calm     93% 0.0 mm 0 W/m2
00:23 6.5 °C 5.4 °C 1027.4 hPa Calm     93% 0.0 mm 0 W/m2
00:28 6.4 °C 5.4 °C 1027.4 hPa Calm     93% 0.0 mm 0 W/m2
00:33 6.3 °C 5.4 °C 1027.4 hPa Calm     94% 0.0 mm 0 W/m2
00:38 6.3 °C 5.4 °C 1027.4 hPa Calm     94% 0.0 mm 0 W/m2
00:43 6.3 °C 5.4 °C 1027.4 hPa Calm     94% 0.0 mm 0 W/m2
00:48 6.3 °C 5.4 °C 1027.4 hPa Calm     94% 0.0 mm 0 W/m2
00:53 6.3 °C 5.4 °C 1027.4 hPa Calm     94% 0.0 mm 0 W/m2
00:58 6.2 °C 5.3 °C 1027.4 hPa Calm     94% 0.0 mm 0 W/m2
01:03 6.2 °C 5.3 °C 1027.4 hPa Calm     94% 0.0 mm 0 W/m2
01:08 6.1 °C 5.2 °C 1027.4 hPa Calm     94% 0.0 mm 0 W/m2
01:13 6.1 °C 5.2 °C 1027.4 hPa Calm     94% 0.0 mm 0 W/m2
01:18 6.1 °C 5.2 °C 1027.4 hPa Calm     94% 0.0 mm 0 W/m2
01:23 6 °C 5.3 °C 1027.4 hPa Calm     95% 0.0 mm 0 W/m2
01:28 5.9 °C 5.2 °C 1027.4 hPa WSW 1.4 km/h 3.2 km/h 95% 0.0 mm 0 W/m2
01:33 5.9 °C 5.2 °C 1027.4 hPa Calm     95% 0.0 mm 0 W/m2
01:38 5.9 °C 5.2 °C 1027.4 hPa Calm     95% 0.0 mm 0 W/m2
01:43 5.8 °C 5.1 °C 1027.4 hPa Calm     95% 0.0 mm 0 W/m2
01:48 5.8 °C 5.1 °C 1027.4 hPa Calm     95% 0.0 mm 0 W/m2
01:53 5.8 °C 5.1 °C 1027.4 hPa Calm     95% 0.0 mm 0 W/m2
01:58 5.8 °C 5.1 °C 1027.4 hPa Calm     95% 0.0 mm 0 W/m2
02:03 5.8 °C 5.1 °C 1027.4 hPa Calm     95% 0.0 mm 0 W/m2
02:08 5.7 °C 5 °C 1027.4 hPa Calm     95% 0.0 mm 0 W/m2
02:13 5.6 °C 4.9 °C 1027.4 hPa Calm     95% 0.0 mm 0 W/m2
02:18 5.5 °C 4.8 °C 1027.4 hPa Calm     95% 0.0 mm 0 W/m2
02:23 5.4 °C 4.7 °C 1027.4 hPa Calm     95% 0.0 mm 0 W/m2
02:28 5.4 °C 4.7 °C 1027.4 hPa Calm     95% 0.0 mm 0 W/m2
02:33 5.4 °C 4.7 °C 1027.4 hPa Calm     95% 0.0 mm 0 W/m2
02:38 5.4 °C 4.7 °C 1027.4 hPa Calm     95% 0.0 mm 0 W/m2
02:43 5.4 °C 4.7 °C 1027.4 hPa Calm     95% 0.0 mm 0 W/m2
02:48 5.4 °C 4.7 °C 1027.4 hPa Calm     95% 0.0 mm 0 W/m2
02:53 5.5 °C 4.9 °C 1027.4 hPa Calm     96% 0.0 mm 0 W/m2
02:58 5.6 °C 5 °C 1027.4 hPa Calm     96% 0.0 mm 0 W/m2
03:03 5.6 °C 5 °C 1027.4 hPa Calm     96% 0.0 mm 0 W/m2
03:08 5.7 °C 5.1 °C 1027.4 hPa Calm     96% 0.0 mm 0 W/m2
03:13 5.7 °C 5.1 °C 1027.4 hPa Calm     96% 0.0 mm 0 W/m2
03:18 5.7 °C 5.1 °C 1027.4 hPa Calm     96% 0.0 mm 0 W/m2
03:23 5.8 °C 5.2 °C 1027.4 hPa Calm     96% 0.0 mm 0 W/m2
03:28 5.8 °C 5.2 °C 1027.4 hPa Calm     96% 0.0 mm 0 W/m2
03:33 5.9 °C 5.3 °C 1027.4 hPa Calm     96% 0.0 mm 0 W/m2
03:38 5.9 °C 5.3 °C 1027.4 hPa Calm     96% 0.0 mm 0 W/m2
03:43 6 °C 5.4 °C 1027.4 hPa Calm     96% 0.0 mm 0 W/m2
03:48 6 °C 5.4 °C 1027.4 hPa Calm     96% 0.0 mm 0 W/m2
03:53 6 °C 5.4 °C 1027.4 hPa Calm     96% 0.0 mm 0 W/m2
03:58 6.1 °C 5.5 °C 1027.4 hPa Calm     96% 0.0 mm 0 W/m2
04:03 6.1 °C 5.5 °C 1027.4 hPa Calm     96% 0.0 mm 0 W/m2
04:08 6.1 °C 5.5 °C 1027.1 hPa Calm     96% 0.0 mm 0 W/m2
04:14 6.2 °C 5.6 °C 1027.1 hPa Calm     96% 0.0 mm 0 W/m2
04:19 6.2 °C 5.6 °C 1027.1 hPa Calm     96% 0.0 mm 0 W/m2
04:24 6.2 °C 5.6 °C 1027.1 hPa Calm     96% 0.0 mm 0 W/m2
04:29 6.2 °C 5.6 °C 1027.1 hPa Calm     96% 0.0 mm 0 W/m2
04:34 6.2 °C 5.6 °C 1027.1 hPa Calm     96% 0.0 mm 0 W/m2
04:39 6.2 °C 5.6 °C 1027.1 hPa Calm     96% 0.0 mm 0 W/m2
04:44 6.3 °C 5.7 °C 1027.1 hPa Calm     96% 0.0 mm 0 W/m2
04:49 6.3 °C 5.7 °C 1027.1 hPa Calm     96% 0.0 mm 0 W/m2
04:54 6.3 °C 5.7 °C 1027.1 hPa Calm     96% 0.0 mm 0 W/m2
04:59 6.2 °C 5.6 °C 1027.1 hPa Calm     96% 0.0 mm 0 W/m2
05:04 6.2 °C 5.6 °C 1027.1 hPa Calm     96% 0.0 mm 0 W/m2
05:09 6.1 °C 5.5 °C 1027.1 hPa Calm     96% 0.0 mm 0 W/m2
05:14 5.9 °C 5.3 °C 1027.1 hPa Calm     96% 0.0 mm 0 W/m2
05:19 5.9 °C 5.3 °C 1027.1 hPa Calm     96% 0.0 mm 0 W/m2
05:24 5.8 °C 5.2 °C 1027.1 hPa Calm     96% 0.0 mm 0 W/m2
05:29 5.8 °C 5.2 °C 1027.1 hPa Calm     96% 0.0 mm 0 W/m2
05:34 5.8 °C 5.2 °C 1027.1 hPa Calm     96% 0.0 mm 0 W/m2
05:39 5.7 °C 5.1 °C 1027.1 hPa Calm     96% 0.0 mm 0 W/m2
05:44 5.7 °C 5.1 °C 1027.1 hPa Calm     96% 0.0 mm 0 W/m2
05:49 5.6 °C 5 °C 1027.1 hPa Calm     96% 0.0 mm 0 W/m2
05:54 5.6 °C 5 °C 1027.1 hPa Calm     96% 0.0 mm 0 W/m2
05:59 5.5 °C 4.9 °C 1027.1 hPa Calm     96% 0.0 mm 0 W/m2
06:04 5.4 °C 4.8 °C 1026.8 hPa Calm     96% 0.0 mm 0 W/m2
06:09 5.3 °C 4.7 °C 1027.1 hPa Calm     96% 0.0 mm 0 W/m2
06:14 5.2 °C 4.6 °C 1027.1 hPa Calm     96% 0.0 mm 0 W/m2
06:19 5.2 °C 4.6 °C 1027.1 hPa Calm     96% 0.0 mm 0 W/m2
06:24 5.2 °C 4.6 °C 1027.1 hPa Calm     96% 0.0 mm 0 W/m2
06:29 5.2 °C 4.6 °C 1027.1 hPa WSW 1.4 km/h 1.6 km/h 96% 0.0 mm 0 W/m2
06:34 5.2 °C 4.6 °C 1027.1 hPa Calm   1.6 km/h 96% 0.0 mm 0 W/m2
06:39 5.2 °C 4.6 °C 1027.1 hPa Calm     96% 0.0 mm 0 W/m2
06:44 5.2 °C 4.6 °C 1027.1 hPa Calm   1.6 km/h 96% 0.0 mm 0 W/m2
06:49 5.3 °C 4.7 °C 1027.1 hPa Calm     96% 0.0 mm 0 W/m2
06:54 5.3 °C 4.7 °C 1027.1 hPa Calm     96% 0.0 mm 0 W/m2
06:59 5.4 °C 4.8 °C 1027.1 hPa Calm     96% 0.0 mm 0 W/m2
07:04 5.5 °C 4.9 °C 1027.1 hPa Calm     96% 0.0 mm 0 W/m2
07:09 5.6 °C 5 °C 1027.1 hPa Calm     96% 0.0 mm 0 W/m2
07:14 5.7 °C 5.1 °C 1027.1 hPa Calm     96% 0.0 mm 0 W/m2
07:19 5.7 °C 5.1 °C 1027.4 hPa Calm     96% 0.0 mm 0 W/m2
07:24 5.7 °C 5.1 °C 1027.4 hPa WSW 1.4 km/h 1.6 km/h 96% 0.0 mm 0 W/m2
07:29 5.7 °C 5.1 °C 1027.1 hPa Calm     96% 0.0 mm 0 W/m2
07:34 5.7 °C 5.1 °C 1027.4 hPa Calm     96% 0.0 mm 0 W/m2
07:39 5.7 °C 5.1 °C 1027.4 hPa Calm     96% 0.0 mm 0 W/m2
07:44 5.7 °C 5.1 °C 1027.4 hPa Calm     96% 0.0 mm 0 W/m2
07:49 5.7 °C 5.1 °C 1027.1 hPa Calm     96% 0.0 mm 0 W/m2
07:54 5.7 °C 5.1 °C 1027.4 hPa Calm     96% 0.0 mm 0 W/m2
07:59 5.7 °C 5.1 °C 1027.4 hPa Calm     96% 0.0 mm 5 W/m2
08:04 5.7 °C 5.1 °C 1027.4 hPa Calm     96% 0.0 mm 7 W/m2
08:09 5.7 °C 5.1 °C 1027.4 hPa WSW 1.4 km/h 3.2 km/h 96% 0.0 mm 9 W/m2
08:14 5.7 °C 5.1 °C 1027.4 hPa Calm   3.2 km/h 96% 0.0 mm 9 W/m2
08:19 5.7 °C 5.1 °C 1027.4 hPa Calm     96% 0.0 mm 11 W/m2
08:24 5.7 °C 5.1 °C 1027.4 hPa Calm   3.2 km/h 96% 0.0 mm 12 W/m2
08:29 5.6 °C 5 °C 1027.4 hPa Calm     96% 0.0 mm 14 W/m2
08:34 5.4 °C 4.8 °C 1027.4 hPa Calm   3.2 km/h 96% 0.0 mm 21 W/m2
08:39 5.4 °C 4.8 °C 1027.4 hPa Calm     96% 0.0 mm 26 W/m2
08:44 5.4 °C 4.8 °C 1027.4 hPa Calm   1.6 km/h 96% 0.0 mm 32 W/m2
08:49 5.4 °C 4.8 °C 1027.1 hPa SSW 1.4 km/h 3.2 km/h 96% 0.0 mm 35 W/m2
08:54 5.5 °C 4.9 °C 1027.1 hPa Calm   1.6 km/h 96% 0.0 mm 44 W/m2
08:59 5.6 °C 5 °C 1027.1 hPa Calm   3.2 km/h 96% 0.0 mm 46 W/m2
09:04 5.7 °C 5.3 °C 1027.4 hPa WNW 1.4 km/h 3.2 km/h 97% 0.0 mm 54 W/m2
09:09 5.7 °C 5.3 °C 1027.4 hPa Calm   1.6 km/h 97% 0.0 mm 62 W/m2
09:14 5.8 °C 5.4 °C 1027.4 hPa Calm     97% 0.0 mm 72 W/m2
09:19 5.8 °C 5.2 °C 1027.4 hPa WSW 1.4 km/h 3.2 km/h 96% 0.0 mm 77 W/m2
09:24 5.9 °C 5.3 °C 1027.1 hPa Calm     96% 0.0 mm 74 W/m2
09:29 6 °C 5.6 °C 1027.4 hPa Calm   3.2 km/h 97% 0.0 mm 74 W/m2
09:34 6.2 °C 5.8 °C 1027.4 hPa Calm     97% 0.0 mm 72 W/m2
09:39 6.3 °C 5.9 °C 1027.4 hPa Calm     97% 0.0 mm 79 W/m2
09:44 6.4 °C 6 °C 1027.4 hPa Calm     97% 0.0 mm 93 W/m2
09:49 6.6 °C 6.2 °C 1027.4 hPa Calm     97% 0.0 mm 97 W/m2
09:54 6.7 °C 6.3 °C 1027.4 hPa Calm   1.6 km/h 97% 0.0 mm 95 W/m2
10:00 6.8 °C 6.4 °C 1027.4 hPa Calm     97% 0.0 mm 84 W/m2
10:05 6.9 °C 6.5 °C 1027.4 hPa Calm     97% 0.0 mm 84 W/m2
10:10 7 °C 6.6 °C 1027.4 hPa WSW 1.4 km/h 3.2 km/h 97% 0.0 mm 104 W/m2
10:15 7.2 °C 6.8 °C 1027.1 hPa Calm   3.2 km/h 97% 0.0 mm 90 W/m2
10:20 7.3 °C 6.9 °C 1027.4 hPa Calm     97% 0.0 mm 111 W/m2
10:25 7.5 °C 7.1 °C 1027.4 hPa Calm   1.6 km/h 97% 0.0 mm 98 W/m2
10:30 7.8 °C 7.4 °C 1027.4 hPa Calm     97% 0.0 mm 267 W/m2
10:35 8.2 °C 7.8 °C 1027.4 hPa Calm     97% 0.0 mm 313 W/m2
10:40 8.4 °C 8 °C 1027.4 hPa Calm     97% 0.0 mm 325 W/m2
10:45 8.8 °C 8.3 °C 1027.4 hPa WSW 3.2 km/h 3.2 km/h 97% 0.0 mm 329 W/m2
10:50 8.9 °C 8.4 °C 1027.4 hPa WNW 3.2 km/h 4.8 km/h 97% 0.0 mm 330 W/m2
10:55 9.1 °C 8.6 °C 1027.1 hPa WNW 1.4 km/h 4.8 km/h 97% 0.0 mm 341 W/m2
11:00 9.3 °C 8.7 °C 1027.4 hPa WSW 4.7 km/h 6.4 km/h 96% 0.0 mm 352 W/m2
11:05 9.7 °C 8.9 °C 1027.4 hPa West 4.7 km/h 6.4 km/h 95% 0.0 mm 364 W/m2
11:10 9.9 °C 8.8 °C 1027.4 hPa West 3.2 km/h 11.3 km/h 93% 0.0 mm 309 W/m2
11:15 10.2 °C 8.8 °C 1027.4 hPa WNW 3.2 km/h 4.8 km/h 91% 0.0 mm 396 W/m2
11:20 10.4 °C 8.7 °C 1027.4 hPa NW 6.4 km/h 9.7 km/h 89% 0.0 mm 323 W/m2
11:25 10.6 °C 8.7 °C 1027.1 hPa WNW 7.9 km/h 8 km/h 88% 0.0 mm 172 W/m2
11:30 10.7 °C 8.5 °C 1027.1 hPa NW 3.2 km/h 6.4 km/h 86% 0.0 mm 148 W/m2
11:35 10.9 °C 8.5 °C 1027.1 hPa WNW 4.7 km/h 4.8 km/h 85% 0.0 mm 422 W/m2
11:40 11.1 °C 8.5 °C 1027.1 hPa SW 6.4 km/h 6.4 km/h 84% 0.0 mm 427 W/m2
11:45 11.2 °C 8.4 °C 1027.1 hPa WSW 1.4 km/h 3.2 km/h 83% 0.0 mm 438 W/m2
11:50 11.3 °C 8.5 °C 1027.1 hPa SW 3.2 km/h 6.4 km/h 83% 0.0 mm 56 W/m2
11:55 11.3 °C 8.3 °C 1027.1 hPa SW 3.2 km/h 4.8 km/h 82% 0.0 mm 49 W/m2
12:00 11.3 °C 8.3 °C 1027.1 hPa Calm   6.4 km/h 82% 0.0 mm 53 W/m2
12:05 11.4 °C 8.4 °C 1027.1 hPa WNW 1.4 km/h 11.3 km/h 82% 0.0 mm 47 W/m2
12:10 11.4 °C 8.4 °C 1027.1 hPa WSW 3.2 km/h 9.7 km/h 82% 0.0 mm 46 W/m2
12:15 11.6 °C 8.5 °C 1027.1 hPa WSW 3.2 km/h 9.7 km/h 81% 0.0 mm 46 W/m2
12:20 11.7 °C 8.5 °C 1027.1 hPa WNW 3.2 km/h 6.4 km/h 81% 0.0 mm 46 W/m2
12:25 11.7 °C 8.5 °C 1027.1 hPa West 6.4 km/h 6.4 km/h 81% 0.0 mm 46 W/m2
12:30 11.8 °C 8.6 °C 1027.1 hPa NNW 1.4 km/h 4.8 km/h 81% 0.0 mm 144 W/m2
12:35 11.9 °C 8.6 °C 1027.1 hPa WNW 6.4 km/h 11.3 km/h 80% 0.0 mm 107 W/m2
12:40 12 °C 8.5 °C 1027.1 hPa NNW 4.7 km/h 11.3 km/h 79% 0.0 mm 272 W/m2
12:45 12.2 °C 8.3 °C 1027.1 hPa WNW 7.9 km/h 8 km/h 77% 0.0 mm 97 W/m2
12:50 12.2 °C 8.5 °C 1026.8 hPa WNW 4.7 km/h 12.9 km/h 78% 0.0 mm 441 W/m2
12:55 12.4 °C 8.7 °C 1026.8 hPa West 3.2 km/h 11.3 km/h 78% 0.0 mm 513 W/m2
13:00 12.4 °C 8.7 °C 1026.8 hPa West 9.7 km/h 12.9 km/h 78% 0.0 mm 517 W/m2
13:05 12.5 °C 8.6 °C 1026.8 hPa WSW 1.4 km/h 11.3 km/h 77% 0.0 mm 348 W/m2
13:10 12.4 °C 8.5 °C 1026.8 hPa West 1.4 km/h 4.8 km/h 77% 0.0 mm 199 W/m2
13:15 12.4 °C 8.5 °C 1026.4 hPa WSW 6.4 km/h 9.7 km/h 77% 0.0 mm 51 W/m2
13:20 12.4 °C 8.5 °C 1026.4 hPa WSW 6.4 km/h 11.3 km/h 77% 0.0 mm 56 W/m2
13:25 12.6 °C 8.7 °C 1026.4 hPa WSW 7.9 km/h 8 km/h 77% 0.0 mm 58 W/m2
13:30 12.6 °C 8.7 °C 1026.4 hPa SW 4.7 km/h 11.3 km/h 77% 0.0 mm 216 W/m2
13:35 12.7 °C 9 °C 1026.4 hPa NW 3.2 km/h 4.8 km/h 78% 0.0 mm 520 W/m2
13:40 12.9 °C 9 °C 1026.1 hPa West 9.7 km/h 9.7 km/h 77% 0.0 mm 492 W/m2
13:45 12.9 °C 9 °C 1026.1 hPa WNW 7.9 km/h 8 km/h 77% 0.0 mm 53 W/m2
13:50 12.9 °C 9 °C 1026.1 hPa WNW 3.2 km/h 3.2 km/h 77% 0.0 mm 49 W/m2
13:55 12.9 °C 9 °C 1025.7 hPa NW 6.4 km/h 9.7 km/h 77% 0.0 mm 49 W/m2
14:01 13.1 °C 9.2 °C 1025.7 hPa WSW 4.7 km/h 4.8 km/h 77% 0.0 mm 51 W/m2
14:06 13.2 °C 9.3 °C 1025.7 hPa NW 3.2 km/h 8 km/h 77% 0.0 mm 53 W/m2
14:11 13.3 °C 9.2 °C 1025.7 hPa WSW 7.9 km/h 8 km/h 76% 0.0 mm 51 W/m2
14:16 13.3 °C 9 °C 1025.7 hPa Calm   3.2 km/h 75% 0.0 mm 51 W/m2
14:21 13.3 °C 9.2 °C 1025.7 hPa NW 1.4 km/h 3.2 km/h 76% 0.0 mm 51 W/m2
14:26 13.3 °C 8.6 °C 1025.4 hPa West 3.2 km/h 9.7 km/h 73% 0.0 mm 56 W/m2
14:31 13.5 °C 9 °C 1025.4 hPa NE 3.2 km/h 6.4 km/h 74% 0.0 mm 54 W/m2
14:36 13.7 °C 8.9 °C 1025.4 hPa NNW 3.2 km/h 6.4 km/h 73% 0.0 mm 53 W/m2
14:41 13.8 °C 8.8 °C 1025.4 hPa WNW 6.4 km/h 6.4 km/h 72% 0.0 mm 51 W/m2
14:46 13.9 °C 8.9 °C 1025.4 hPa WNW 1.4 km/h 4.8 km/h 72% 0.0 mm 51 W/m2
14:51 13.9 °C 8.9 °C 1025.1 hPa WNW 1.4 km/h 3.2 km/h 72% 0.0 mm 51 W/m2
14:56 13.8 °C 8.6 °C 1025.1 hPa WSW 3.2 km/h 8 km/h 71% 0.0 mm 51 W/m2
15:01 13.8 °C 8.6 °C 1025.1 hPa WSW 3.2 km/h 4.8 km/h 71% 0.0 mm 51 W/m2
15:06 13.9 °C 8.7 °C 1025.1 hPa WNW 1.4 km/h 3.2 km/h 71% 0.0 mm 49 W/m2
15:11 13.9 °C 8.7 °C 1025.1 hPa West 3.2 km/h 6.4 km/h 71% 0.0 mm 54 W/m2
15:16 13.9 °C 8.5 °C 1025.1 hPa West 3.2 km/h 3.2 km/h 70% 0.0 mm 77 W/m2
15:21 14.1 °C 8.7 °C 1025.1 hPa WSW 4.7 km/h 6.4 km/h 70% 0.0 mm 111 W/m2
15:26 14.1 °C 8.5 °C 1025.1 hPa WNW 4.7 km/h 6.4 km/h 69% 0.0 mm 49 W/m2
15:31 14.2 °C 8.6 °C 1025.1 hPa West 1.4 km/h 4.8 km/h 69% 0.0 mm 53 W/m2
15:36 14.2 °C 8.6 °C 1024.7 hPa West 3.2 km/h 6.4 km/h 69% 0.0 mm 47 W/m2
15:41 14.2 °C 8.6 °C 1024.7 hPa West 3.2 km/h 4.8 km/h 69% 0.0 mm 49 W/m2
15:46 14.1 °C 8.7 °C 1024.7 hPa WNW 1.4 km/h 6.4 km/h 70% 0.0 mm 49 W/m2
15:51 14.1 °C 8.7 °C 1024.7 hPa WNW 1.4 km/h 3.2 km/h 70% 0.0 mm 49 W/m2
15:56 14.1 °C 8.5 °C 1024.4 hPa West 1.4 km/h 3.2 km/h 69% 0.0 mm 49 W/m2
16:01 14 °C 8.6 °C 1024.4 hPa West 1.4 km/h 3.2 km/h 70% 0.0 mm 44 W/m2
16:06 13.9 °C 8.9 °C 1024.4 hPa West 1.4 km/h 4.8 km/h 72% 0.0 mm 139 W/m2
16:11 14.1 °C 8.9 °C 1024.4 hPa Calm   3.2 km/h 71% 0.0 mm 46 W/m2
16:16 14.1 °C 8.9 °C 1024.4 hPa West 1.4 km/h 4.8 km/h 71% 0.0 mm 42 W/m2
16:21 14 °C 9 °C 1024.0 hPa WSW 3.2 km/h 4.8 km/h 72% 0.0 mm 42 W/m2
16:26 13.9 °C 9.1 °C 1024.0 hPa Calm     73% 0.0 mm 39 W/m2
16:31 13.9 °C 9.1 °C 1024.0 hPa Calm   3.2 km/h 73% 0.0 mm 42 W/m2
16:36 14 °C 9 °C 1024.0 hPa WSW 3.2 km/h 4.8 km/h 72% 0.0 mm 241 W/m2
16:41 14.1 °C 9.1 °C 1024.0 hPa WSW 3.2 km/h 4.8 km/h 72% 0.0 mm 46 W/m2
16:46 14.2 °C 9.2 °C 1024.0 hPa Calm   1.6 km/h 72% 0.0 mm 113 W/m2
16:51 14.2 °C 9.2 °C 1023.7 hPa Calm   3.2 km/h 72% 0.0 mm 234 W/m2
16:56 14.2 °C 9.4 °C 1024.0 hPa WNW 1.4 km/h 1.6 km/h 73% 0.0 mm 241 W/m2
17:01 14.2 °C 9.6 °C 1023.7 hPa Calm   3.2 km/h 74% 0.0 mm 104 W/m2
17:06 14 °C 9.8 °C 1023.7 hPa Calm     76% 0.0 mm 40 W/m2
17:11 13.8 °C 9.8 °C 1023.7 hPa WSW 1.4 km/h 3.2 km/h 77% 0.0 mm 40 W/m2
17:16 13.6 °C 9.6 °C 1023.7 hPa WSW 1.4 km/h 3.2 km/h 77% 0.0 mm 37 W/m2
17:21 13.4 °C 9.6 °C 1023.7 hPa Calm   3.2 km/h 78% 0.0 mm 35 W/m2
17:26 13.3 °C 9.9 °C 1023.7 hPa Calm     80% 0.0 mm 37 W/m2
17:31 13.2 °C 9.8 °C 1023.7 hPa Calm   3.2 km/h 80% 0.0 mm 37 W/m2
17:36 13.1 °C 9.9 °C 1023.7 hPa Calm     81% 0.0 mm 40 W/m2
17:41 12.9 °C 9.7 °C 1023.7 hPa Calm     81% 0.0 mm 40 W/m2
17:46 12.8 °C 9.6 °C 1023.7 hPa Calm     81% 0.0 mm 37 W/m2
17:51 12.7 °C 9.7 °C 1023.4 hPa Calm     82% 0.0 mm 35 W/m2
17:56 12.7 °C 9.7 °C 1023.4 hPa WSW 1.4 km/h 1.6 km/h 82% 0.0 mm 35 W/m2
18:01 12.6 °C 9.8 °C 1023.4 hPa WSW 1.4 km/h 1.6 km/h 83% 0.0 mm 33 W/m2
18:06 12.4 °C 9.6 °C 1023.4 hPa Calm   1.6 km/h 83% 0.0 mm 28 W/m2
18:12 12.3 °C 9.5 °C 1023.4 hPa Calm     83% 0.0 mm 25 W/m2
18:17 12.3 °C 9.7 °C 1023.4 hPa WSW 3.2 km/h 3.2 km/h 84% 0.0 mm 21 W/m2
18:22 12.2 °C 9.6 °C 1023.4 hPa WSW 1.4 km/h 3.2 km/h 84% 0.0 mm 18 W/m2
18:27 12.1 °C 9.5 °C 1023.4 hPa Calm   1.6 km/h 84% 0.0 mm 16 W/m2
18:32 12 °C 9.4 °C 1023.4 hPa WSW 1.4 km/h 1.6 km/h 84% 0.0 mm 12 W/m2
18:37 11.8 °C 9.2 °C 1023.4 hPa WSW 1.4 km/h 3.2 km/h 84% 0.0 mm 11 W/m2
18:42 11.7 °C 9.3 °C 1023.4 hPa WSW 3.2 km/h 3.2 km/h 85% 0.0 mm 7 W/m2
18:47 11.6 °C 9.2 °C 1023.4 hPa WSW 3.2 km/h 3.2 km/h 85% 0.0 mm 5 W/m2
18:52 11.3 °C 9 °C 1023.4 hPa WSW 3.2 km/h 3.2 km/h 86% 0.0 mm 0 W/m2
18:57 11.2 °C 8.9 °C 1023.4 hPa WSW 1.4 km/h 1.6 km/h 86% 0.0 mm 0 W/m2
19:02 11.1 °C 9 °C 1023.4 hPa WSW 1.4 km/h 3.2 km/h 87% 0.0 mm 0 W/m2
19:07 10.9 °C 8.8 °C 1023.4 hPa Calm   1.6 km/h 87% 0.0 mm 0 W/m2
19:12 10.8 °C 8.7 °C 1023.0 hPa WSW 1.4 km/h 1.6 km/h 87% 0.0 mm 0 W/m2
19:17 10.7 °C 8.8 °C 1023.0 hPa Calm     88% 0.0 mm 0 W/m2
19:22 10.6 °C 8.7 °C 1023.0 hPa WSW 1.4 km/h 3.2 km/h 88% 0.0 mm 0 W/m2
19:27 10.5 °C 8.6 °C 1023.0 hPa Calm   1.6 km/h 88% 0.0 mm 0 W/m2
19:32 10.4 °C 8.5 °C 1023.0 hPa Calm   1.6 km/h 88% 0.0 mm 0 W/m2
19:37 10.3 °C 8.4 °C 1023.0 hPa Calm     88% 0.0 mm 0 W/m2
19:42 10.2 °C 8.3 °C 1023.0 hPa Calm     88% 0.0 mm 0 W/m2
19:47 10.1 °C 8.2 °C 1023.0 hPa Calm     88% 0.0 mm 0 W/m2
19:52 9.8 °C 8.1 °C 1023.0 hPa Calm     89% 0.0 mm 0 W/m2
19:57 9.7 °C 8 °C 1023.0 hPa Calm     89% 0.0 mm 0 W/m2
20:02 9.6 °C 7.9 °C 1023.0 hPa Calm     89% 0.0 mm 0 W/m2
20:07 9.4 °C 7.7 °C 1023.0 hPa Calm     89% 0.0 mm 0 W/m2
20:12 9.3 °C 7.7 °C 1023.0 hPa Calm     90% 0.0 mm 0 W/m2
20:17 9.1 °C 7.5 °C 1023.0 hPa Calm     90% 0.0 mm 0 W/m2
20:22 8.9 °C 7.3 °C 1022.7 hPa Calm     90% 0.0 mm 0 W/m2
20:27 8.8 °C 7.4 °C 1022.7 hPa Calm     91% 0.0 mm 0 W/m2
20:32 8.8 °C 7.4 °C 1022.7 hPa Calm     91% 0.0 mm 0 W/m2
20:37 8.6 °C 7.2 °C 1022.7 hPa Calm     91% 0.0 mm 0 W/m2
20:42 8.5 °C 7.1 °C 1022.7 hPa Calm     91% 0.0 mm 0 W/m2
20:47 8.4 °C 7 °C 1022.7 hPa Calm     91% 0.0 mm 0 W/m2
20:52 8.3 °C 6.9 °C 1022.7 hPa Calm     91% 0.0 mm 0 W/m2
20:57 8.2 °C 6.8 °C 1022.7 hPa Calm     91% 0.0 mm 0 W/m2
21:02 8.1 °C 6.9 °C 1022.7 hPa Calm     92% 0.0 mm 0 W/m2
21:07 7.9 °C 6.7 °C 1022.7 hPa Calm     92% 0.0 mm 0 W/m2
21:12 7.9 °C 6.7 °C 1022.4 hPa Calm     92% 0.0 mm 0 W/m2
21:17 7.8 °C 6.6 °C 1022.4 hPa Calm     92% 0.0 mm 0 W/m2
21:22 7.7 °C 6.6 °C 1022.4 hPa Calm     93% 0.0 mm 0 W/m2
21:27 7.7 °C 6.6 °C 1022.4 hPa Calm     93% 0.0 mm 0 W/m2
21:32 7.6 °C 6.5 °C 1022.4 hPa Calm     93% 0.0 mm 0 W/m2
21:37 7.6 °C 6.5 °C 1022.4 hPa Calm     93% 0.0 mm 0 W/m2
21:42 7.5 °C 6.4 °C 1022.4 hPa Calm     93% 0.0 mm 0 W/m2
21:47 7.5 °C 6.4 °C 1022.4 hPa Calm     93% 0.0 mm 0 W/m2
21:52 7.4 °C 6.5 °C 1022.4 hPa Calm     94% 0.0 mm 0 W/m2
21:57 7.4 °C 6.5 °C 1022.4 hPa Calm     94% 0.0 mm 0 W/m2
22:02 7.4 °C 6.5 °C 1022.4 hPa Calm     94% 0.0 mm 0 W/m2
22:07 7.4 °C 6.5 °C 1022.4 hPa Calm     94% 0.0 mm 0 W/m2
22:12 7.3 °C 6.4 °C 1022.4 hPa Calm     94% 0.0 mm 0 W/m2
22:17 7.3 °C 6.4 °C 1022.4 hPa Calm     94% 0.0 mm 0 W/m2
22:22 7.2 °C 6.3 °C 1022.4 hPa Calm     94% 0.0 mm 0 W/m2
22:27 7.1 °C 6.2 °C 1022.4 hPa Calm     94% 0.0 mm 0 W/m2
22:32 7 °C 6.1 °C 1022.4 hPa Calm     94% 0.0 mm 0 W/m2
22:37 6.9 °C 6 °C 1022.4 hPa Calm     94% 0.0 mm 0 W/m2
22:42 6.9 °C 6 °C 1022.4 hPa Calm     94% 0.0 mm 0 W/m2
22:47 6.8 °C 5.9 °C 1022.4 hPa Calm     94% 0.0 mm 0 W/m2
22:52 6.8 °C 5.9 °C 1022.4 hPa Calm     94% 0.0 mm 0 W/m2
22:57 6.7 °C 5.8 °C 1022.4 hPa Calm     94% 0.0 mm 0 W/m2
23:02 6.7 °C 5.8 °C 1022.4 hPa Calm     94% 0.0 mm 0 W/m2
23:07 6.8 °C 6.1 °C 1022.0 hPa Calm     95% 0.0 mm 0 W/m2
23:12 6.8 °C 6.1 °C 1022.0 hPa Calm     95% 0.0 mm 0 W/m2
23:17 6.9 °C 6.2 °C 1022.0 hPa Calm     95% 0.0 mm 0 W/m2
23:22 6.8 °C 6.1 °C 1022.0 hPa Calm     95% 0.0 mm 0 W/m2
23:27 6.8 °C 6.1 °C 1022.0 hPa Calm     95% 0.0 mm 0 W/m2
23:32 6.8 °C 6.1 °C 1022.0 hPa Calm     95% 0.0 mm 0 W/m2
23:38 6.8 °C 6.1 °C 1021.7 hPa Calm     95% 0.0 mm 0 W/m2
23:43 6.7 °C 6 °C 1021.7 hPa Calm     95% 0.0 mm 0 W/m2
23:48 6.7 °C 6 °C 1021.7 hPa Calm     95% 0.0 mm 0 W/m2
23:53 6.6 °C 5.9 °C 1021.7 hPa Calm     95% 0.0 mm 0 W/m2
23:58 6.5 °C 5.8 °C 1021.7 hPa Calm     95% 0.0 mm 0 W/m2
Juneau County Weather
Compliments of Weather Underground - 4 mb